Time;durP1;ratioP1;P1;durP2;ratioP2;P2;SDS_P1;SDS_P2;PMS_P1;PMS_P2;Temp;Humidity;BMP_temperature;BMP_pressure;BME280_temperature;BME280_humidity;BME280_pressure;Samples;Min_cycle;Max_cycle;Signal;HPM_P1;HPM_P2
2022/04/29 00:02:57;;;;;;;;;;;;;;;8.17;100.00;99571.00;10349977;28;20004;-79
2022/04/29 00:08:01;;;;;;;;;;;;;;;8.13;100.00;99561.47;10374146;28;19944;-79
2022/04/29 00:13:07;;;;;;;;;;;;;;;8.08;100.00;99567.19;10364433;28;20020;-79
2022/04/29 00:18:09;;;;;;;;;;;;;;;8.05;100.00;99554.00;10381569;28;19921;-79
2022/04/29 00:23:14;;;;;;;;;;;;;;;7.96;100.00;99552.88;10404680;28;19921;-79
2022/04/29 00:28:17;;;;;;;;;;;;;;;7.94;100.00;99553.97;10372146;28;20776;-78
2022/04/29 00:33:20;;;;;;;;;;;;;;;7.95;100.00;99548.47;10357072;28;19975;-79
2022/04/29 00:38:24;;;;;;;;;;;;;;;7.96;100.00;99547.50;10370537;28;19925;-80
2022/04/29 00:43:27;;;;;;;;;;;;;;;7.93;100.00;99546.88;10361267;28;19930;-79
2022/04/29 00:48:30;;;;;;;;;;;;;;;7.91;100.00;99543.44;10374344;28;19955;-79
2022/04/29 00:53:35;;;;;;;;;;;;;;;7.86;100.00;99539.31;10358816;28;19929;-79
2022/04/29 00:58:39;;;;;;;;;;;;;;;7.83;100.00;99535.97;10357493;28;19925;-78
2022/04/29 01:03:42;;;;;;;;;;;;;;;7.78;100.00;99532.81;10370586;28;19921;-79
2022/04/29 01:08:48;;;;;;;;;;;;;;;7.68;100.00;99520.09;10356149;28;20392;-79
2022/04/29 01:13:51;;;;;;;;;;;;;;;7.54;100.00;99510.38;10361582;28;19957;-79
2022/04/29 01:18:54;;;;;;;;;;;;;;;7.33;100.00;99510.19;10374340;28;19989;-79
2022/04/29 01:23:58;;;;;;;;;;;;;;;7.29;100.00;99511.38;10363149;28;20089;-79
2022/04/29 01:29:02;;;;;;;;;;;;;;;7.19;100.00;99503.13;10358453;28;19925;-79
2022/04/29 01:34:05;;;;;;;;;;;;;;;7.13;100.00;99505.41;10370007;28;19929;-79
2022/04/29 01:39:09;;;;;;;;;;;;;;;7.07;100.00;99502.22;10361922;28;19936;-79
2022/04/29 01:44:12;;;;;;;;;;;;;;;7.02;100.00;99503.53;10361342;28;20321;-79
2022/04/29 01:49:16;;;;;;;;;;;;;;;6.96;100.00;99499.47;10370387;28;20357;-79
2022/04/29 01:54:29;;;;;;;;;;;;;;;6.91;100.00;99501.63;10356728;28;20322;-79
2022/04/29 01:59:33;;;;;;;;;;;;;;;6.85;100.00;99486.84;10365744;28;21039;-79
2022/04/29 02:04:41;;;;;;;;;;;;;;;6.82;100.00;99496.94;10346746;28;20286;-79
2022/04/29 02:09:45;;;;;;;;;;;;;;;6.72;100.00;99502.97;10353148;28;19922;-78
2022/04/29 02:14:48;;;;;;;;;;;;;;;6.64;100.00;99499.97;10362271;28;19936;-79
2022/04/29 02:19:53;;;;;;;;;;;;;;;6.60;100.00;99511.88;10355558;28;19925;-79
2022/04/29 02:24:59;;;;;;;;;;;;;;;6.54;100.00;99501.56;10353048;28;19925;-79
2022/04/29 02:30:02;;;;;;;;;;;;;;;6.49;100.00;99501.91;10367705;28;20295;-78
2022/04/29 02:35:06;;;;;;;;;;;;;;;6.41;100.00;99494.41;10348207;28;19925;-79
2022/04/29 02:40:11;;;;;;;;;;;;;;;6.34;100.00;99494.97;10365690;28;19926;-79
2022/04/29 02:45:14;;;;;;;;;;;;;;;6.28;100.00;99482.88;10367344;28;19930;-78
2022/04/29 02:50:19;;;;;;;;;;;;;;;6.23;100.00;99485.88;10354401;28;20294;-78
2022/04/29 02:55:28;;;;;;;;;;;;;;;6.16;100.00;99485.44;10353307;28;19931;-80
2022/04/29 03:00:47;;;;;;;;;;;;;;;6.13;100.00;99479.44;10366213;28;20031;-79
2022/04/29 03:05:52;;;;;;;;;;;;;;;6.08;100.00;99469.06;10368590;28;19929;-80
2022/04/29 03:10:56;;;;;;;;;;;;;;;6.04;100.00;99469.38;10369941;28;19929;-80
2022/04/29 03:15:59;;;;;;;;;;;;;;;5.98;100.00;99468.81;10354467;28;20435;-79
2022/04/29 03:21:03;;;;;;;;;;;;;;;5.90;100.00;99473.81;10369427;28;19921;-81
2022/04/29 03:26:07;;;;;;;;;;;;;;;5.84;100.00;99464.41;10373983;28;19931;-81
2022/04/29 03:31:11;;;;;;;;;;;;;;;5.80;100.00;99470.06;10369041;28;19929;-82
2022/04/29 03:36:37;;;;;;;;;;;;;;;5.75;100.00;99475.75;10378387;28;19921;-81
2022/04/29 03:41:41;;;;;;;;;;;;;;;5.74;100.00;99467.84;10347607;28;19933;-80
2022/04/29 03:46:44;;;;;;;;;;;;;;;5.71;100.00;99477.78;10360234;28;19956;-80
2022/04/29 03:52:04;;;;;;;;;;;;;;;5.65;100.00;99486.19;10349023;28;20610;-82
2022/04/29 03:57:08;;;;;;;;;;;;;;;5.64;100.00;99494.31;10361828;28;20004;-82
2022/04/29 04:02:12;;;;;;;;;;;;;;;5.58;100.00;99494.75;10358496;28;19926;-81
2022/04/29 04:07:15;;;;;;;;;;;;;;;5.62;100.00;99501.59;10345193;28;19925;-82
2022/04/29 04:12:41;;;;;;;;;;;;;;;5.63;100.00;99506.84;10358768;28;20089;-83
2022/04/29 04:17:44;;;;;;;;;;;;;;;5.63;100.00;99508.66;10348078;28;19991;-82
2022/04/29 04:22:48;;;;;;;;;;;;;;;5.60;100.00;99519.53;10362916;28;19925;-82
2022/04/29 04:27:52;;;;;;;;;;;;;;;5.60;100.00;99508.84;10364239;28;20012;-81
2022/04/29 04:33:01;;;;;;;;;;;;;;;5.59;100.00;99513.34;10350000;28;19921;-82
2022/04/29 04:38:04;;;;;;;;;;;;;;;5.63;100.00;99512.19;10338714;28;19929;-83
2022/04/29 04:43:24;;;;;;;;;;;;;;;5.71;100.00;99508.97;10344540;28;20297;-82
2022/04/29 04:48:27;;;;;;;;;;;;;;;5.69;100.00;99516.28;10343283;28;19929;-82
2022/04/29 04:53:53;;;;;;;;;;;;;;;5.77;100.00;99505.03;10351915;28;19930;-82
2022/04/29 04:59:00;;;;;;;;;;;;;;;5.87;100.00;99516.84;10368415;28;19921;-80
2022/04/29 05:04:04;;;;;;;;;;;;;;;5.90;100.00;99516.63;10370065;28;19973;-83
2022/04/29 05:09:28;;;;;;;;;;;;;;;5.97;100.00;99514.38;10361492;28;19930;-82
2022/04/29 05:14:34;;;;;;;;;;;;;;;6.08;100.00;99517.22;10367429;28;19927;-83
2022/04/29 05:19:37;;;;;;;;;;;;;;;6.16;100.00;99533.63;10349460;28;19929;-82
2022/04/29 05:24:41;;;;;;;;;;;;;;;6.21;100.00;99538.66;10373916;28;19926;-81
2022/04/29 05:30:08;;;;;;;;;;;;;;;6.34;100.00;99529.78;10355401;28;19928;-82
2022/04/29 05:35:29;;;;;;;;;;;;;;;6.47;100.00;99520.75;10358616;28;20012;-82
2022/04/29 05:46:15;;;;;;;;;;;;;;;6.86;100.00;99535.94;10374346;28;20121;-82
2022/04/29 05:51:18;;;;;;;;;;;;;;;7.04;100.00;99531.06;10388659;28;19917;-80
2022/04/29 05:56:21;;;;;;;;;;;;;;;7.15;100.00;99531.16;10418577;28;20723;-79
2022/04/29 06:01:27;;;;;;;;;;;;;;;7.30;100.00;99537.22;10409621;28;19944;-81
2022/04/29 06:06:33;;;;;;;;;;;;;;;7.41;100.00;99531.03;10381494;28;19930;-81
2022/04/29 06:11:36;;;;;;;;;;;;;;;7.57;100.00;99528.09;10359530;28;19925;-82
2022/04/29 06:16:45;;;;;;;;;;;;;;;7.70;100.00;99531.53;10371851;28;20858;-82
2022/04/29 06:22:14;;;;;;;;;;;;;;;7.90;100.00;99531.88;10325281;28;20052;-83
2022/04/29 06:27:20;;;;;;;;;;;;;;;8.06;100.00;99534.25;10298612;28;19936;-83
2022/04/29 06:32:25;;;;;;;;;;;;;;;8.22;100.00;99543.81;10305617;28;19929;-83
2022/04/29 06:37:56;;;;;;;;;;;;;;;8.31;100.00;99541.25;10338235;28;20274;-83
2022/04/29 06:43:20;;;;;;;;;;;;;;;8.38;100.00;99538.94;10350835;28;19929;-83
2022/04/29 06:48:45;;;;;;;;;;;;;;;8.52;100.00;99537.91;10309742;28;20382;-83
2022/04/29 06:54:08;;;;;;;;;;;;;;;8.67;100.00;99540.34;10309007;28;19944;-83
2022/04/29 06:59:13;;;;;;;;;;;;;;;8.79;100.00;99536.69;10328221;28;20448;-82
2022/04/29 07:04:19;;;;;;;;;;;;;;;8.92;100.00;99540.09;10324510;28;20334;-83
2022/04/29 07:09:23;;;;;;;;;;;;;;;9.03;100.00;99535.69;10317509;28;20170;-81
2022/04/29 07:15:16;;;;;;;;;;;;;;;9.27;100.00;99538.22;10311169;28;19922;-82
2022/04/29 07:20:22;;;;;;;;;;;;;;;9.47;100.00;99523.13;10328557;28;19921;-82
2022/04/29 07:25:27;;;;;;;;;;;;;;;9.74;100.00;99520.97;10366690;28;19948;-80
2022/04/29 07:30:30;;;;;;;;;;;;;;;10.01;100.00;99507.00;10362986;28;20429;-81
2022/04/29 07:46:36;;;;;;;;;;;;;;;11.01;100.00;99497.44;10344738;28;20365;-82
2022/04/29 07:51:59;;;;;;;;;;;;;;;11.28;100.00;99487.03;10302048;28;20020;-82
2022/04/29 07:57:06;;;;;;;;;;;;;;;11.60;100.00;99481.34;10327186;28;21467;-80
2022/04/29 08:02:09;;;;;;;;;;;;;;;11.95;100.00;99479.06;10316701;28;19930;-79
2022/04/29 08:07:13;;;;;;;;;;;;;;;12.26;100.00;99468.94;10317841;28;19930;-81
2022/04/29 08:12:16;;;;;;;;;;;;;;;12.62;100.00;99466.41;10316962;28;19937;-82
2022/04/29 08:17:39;;;;;;;;;;;;;;;12.86;100.00;99466.84;10307917;28;20016;-82
2022/04/29 08:22:45;;;;;;;;;;;;;;;13.05;100.00;99468.59;10320509;28;19948;-81
2022/04/29 08:27:51;;;;;;;;;;;;;;;13.33;100.00;99461.28;10321434;28;19930;-82
2022/04/29 08:32:56;;;;;;;;;;;;;;;13.63;100.00;99453.84;10301717;28;20294;-81
2022/04/29 08:38:09;;;;;;;;;;;;;;;13.84;100.00;99448.06;10327669;28;19952;-79
2022/04/29 08:43:22;;;;;;;;;;;;;;;13.94;100.00;99455.25;10314198;28;19930;-80
2022/04/29 08:48:29;;;;;;;;;;;;;;;14.10;100.00;99449.97;10331090;28;20004;-76
2022/04/29 08:53:34;;;;;;;;;;;;;;;14.38;100.00;99452.53;10317975;28;19934;-76
2022/04/29 08:58:40;;;;;;;;;;;;;;;14.49;100.00;99452.25;10314167;28;20029;-77
2022/04/29 09:03:44;;;;;;;;;;;;;;;14.71;100.00;99446.41;10328242;28;20390;-77
2022/04/29 09:08:48;;;;;;;;;;;;;;;14.90;95.05;99435.31;10313463;28;20008;-76
2022/04/29 09:13:51;;;;;;;;;;;;;;;15.08;100.00;99437.94;10315690;28;19953;-77
2022/04/29 09:18:57;;;;;;;;;;;;;;;15.27;88.97;99441.34;10328893;28;19930;-79
2022/04/29 09:24:06;;;;;;;;;;;;;;;15.47;87.45;99438.31;10344403;28;19957;-80
2022/04/29 09:29:47;;;;;;;;;;;;;;;15.62;78.33;99431.22;10358066;28;19921;-80
2022/04/29 09:35:08;;;;;;;;;;;;;;;15.92;81.71;99423.44;10355027;28;19927;-80
2022/04/29 09:40:13;;;;;;;;;;;;;;;16.17;80.84;99421.53;10368214;28;20825;-79
2022/04/29 09:45:17;;;;;;;;;;;;;;;16.23;72.08;99417.25;10359593;28;20379;-80
2022/04/29 09:50:20;;;;;;;;;;;;;;;16.51;72.89;99416.84;10340945;28;19991;-80
2022/04/29 09:55:25;;;;;;;;;;;;;;;16.73;71.11;99409.78;10357799;28;20016;-80
2022/04/29 10:00:27;;;;;;;;;;;;;;;16.85;67.78;99407.53;10341247;28;20393;-79
2022/04/29 10:05:30;;;;;;;;;;;;;;;17.00;69.53;99394.03;10153248;28;5001532;-80
2022/04/29 10:10:40;;;;;;;;;;;;;;;16.78;75.34;99395.63;10366679;28;19925;-80
2022/04/29 10:15:43;;;;;;;;;;;;;;;16.62;70.27;99397.41;10332327;28;19937;-79
2022/04/29 10:21:17;;;;;;;;;;;;;;;16.62;70.95;99385.69;10315722;28;19968;-79
2022/04/29 10:26:31;;;;;;;;;;;;;;;16.59;70.16;99392.31;10335758;28;19929;-80
2022/04/29 10:31:35;;;;;;;;;;;;;;;16.76;74.34;99386.78;10321610;28;19937;-80
2022/04/29 10:36:46;;;;;;;;;;;;;;;16.77;68.01;99378.47;10334522;28;20007;-79
2022/04/29 10:42:00;;;;;;;;;;;;;;;16.67;66.82;99371.53;10334806;28;20412;-79
2022/04/29 10:47:31;;;;;;;;;;;;;;;16.99;69.00;99372.44;10336920;28;20910;-80
2022/04/29 10:52:59;;;;;;;;;;;;;;;17.50;74.29;99366.44;10330538;28;19930;-79
2022/04/29 10:58:19;;;;;;;;;;;;;;;17.81;69.76;99368.22;10331152;28;19936;-79
2022/04/29 11:03:35;;;;;;;;;;;;;;;17.81;59.70;99368.22;10323479;28;19980;-80
2022/04/29 11:08:38;;;;;;;;;;;;;;;18.14;65.27;99357.84;10336344;28;19944;-80
2022/04/29 11:13:44;;;;;;;;;;;;;;;18.35;60.45;99353.50;10337231;28;20064;-80
2022/04/29 11:19:21;;;;;;;;;;;;;;;18.52;57.41;99345.13;10336227;28;19930;-80
2022/04/29 11:24:42;;;;;;;;;;;;;;;18.37;57.87;99345.13;10337941;28;20408;-80
2022/04/29 11:29:56;;;;;;;;;;;;;;;18.72;62.64;99337.16;10352175;28;20726;-80
2022/04/29 11:35:23;;;;;;;;;;;;;;;18.78;60.35;99333.69;10330444;28;19936;-80
2022/04/29 11:40:26;;;;;;;;;;;;;;;18.89;60.90;99332.31;10336724;28;19930;-80
2022/04/29 11:45:31;;;;;;;;;;;;;;;18.74;58.47;99333.22;10336597;28;20031;-80
2022/04/29 11:50:38;;;;;;;;;;;;;;;18.81;57.98;99327.84;10333961;28;19930;-80
2022/04/29 11:55:41;;;;;;;;;;;;;;;18.52;56.00;99320.56;10336330;28;20555;-79
2022/04/29 12:00:50;;;;;;;;;;;;;;;18.67;58.17;99318.63;10336763;28;20723;-79
2022/04/29 12:05:53;;;;;;;;;;;;;;;18.52;57.27;99315.13;10337278;28;20382;-80
2022/04/29 12:10:58;;;;;;;;;;;;;;;18.28;55.87;99314.41;10351301;28;19984;-80
2022/04/29 12:16:02;;;;;;;;;;;;;;;17.85;57.63;99299.50;10337016;28;20210;-80
2022/04/29 12:21:05;;;;;;;;;;;;;;;18.13;63.33;99298.03;10339075;28;19937;-80
2022/04/29 12:26:10;;;;;;;;;;;;;;;18.35;57.37;99292.63;10321197;28;19929;-80
2022/04/29 12:36:47;;;;;;;;;;;;;;;18.92;56.24;99280.94;10350887;28;20005;-80
2022/04/29 12:42:00;;;;;;;;;;;;;;;19.00;55.67;99279.97;10335449;28;19932;-79
2022/04/29 12:47:20;;;;;;;;;;;;;;;19.23;53.96;99278.91;10322753;28;19929;-80
2022/04/29 12:52:23;;;;;;;;;;;;;;;19.37;54.92;99275.25;10335740;28;19968;-79
2022/04/29 12:57:30;;;;;;;;;;;;;;;19.50;52.71;99268.19;10322054;28;19929;-79
2022/04/29 13:02:34;;;;;;;;;;;;;;;19.40;53.18;99266.66;10333752;28;19925;-80
2022/04/29 13:07:38;;;;;;;;;;;;;;;19.44;50.68;99256.16;10350544;28;19935;-80
2022/04/29 13:12:41;;;;;;;;;;;;;;;19.59;51.27;99256.06;10337399;28;19936;-80
2022/04/29 13:18:00;;;;;;;;;;;;;;;19.59;51.45;99241.56;10346613;28;20163;-81
2022/04/29 13:23:03;;;;;;;;;;;;;;;19.63;52.90;99230.03;10343142;28;20342;-80
2022/04/29 13:28:09;;;;;;;;;;;;;;;19.65;52.60;99216.16;10340592;28;19930;-81
2022/04/29 13:33:13;;;;;;;;;;;;;;;19.41;52.47;99229.25;10338331;28;20075;-80
2022/04/29 13:38:17;;;;;;;;;;;;;;;19.49;52.80;99206.38;10338537;28;19929;-81
2022/04/29 13:43:20;;;;;;;;;;;;;;;19.28;52.62;99208.13;10326097;28;20436;-78
2022/04/29 13:48:24;;;;;;;;;;;;;;;19.05;53.89;99201.03;10351416;28;20008;-78
2022/04/29 13:53:27;;;;;;;;;;;;;;;19.00;54.55;99208.97;10352494;28;20020;-78
2022/04/29 13:58:36;;;;;;;;;;;;;;;18.65;55.06;99200.63;10348532;28;19969;-79
2022/04/29 14:03:42;;;;;;;;;;;;;;;18.33;54.17;99213.72;10381449;28;19948;-78
2022/04/29 14:08:45;;;;;;;;;;;;;;;18.52;56.35;99201.34;10358541;28;19960;-79
2022/04/29 14:13:49;;;;;;;;;;;;;;;18.64;54.46;99194.34;10339155;28;19929;-78
2022/04/29 14:18:53;;;;;;;;;;;;;;;18.52;54.02;99195.88;10358753;28;19926;-79
2022/04/29 14:23:56;;;;;;;;;;;;;;;18.37;56.68;99190.50;10344994;28;20605;-78
2022/04/29 14:29:01;;;;;;;;;;;;;;;18.40;54.81;99186.53;10363515;28;19922;-78
2022/04/29 14:34:05;;;;;;;;;;;;;;;18.64;56.69;99179.81;10347200;28;19930;-78
2022/04/29 14:39:08;;;;;;;;;;;;;;;18.76;55.31;99181.00;10346843;28;19921;-79
2022/04/29 14:44:12;;;;;;;;;;;;;;;18.74;54.72;99169.44;10349816;28;19929;-78
2022/04/29 14:49:16;;;;;;;;;;;;;;;19.11;54.88;99158.44;10344664;28;20020;-79
2022/04/29 14:54:20;;;;;;;;;;;;;;;19.31;55.19;99153.09;10350015;28;21201;-79
2022/04/29 14:59:23;;;;;;;;;;;;;;;19.16;52.88;99155.09;10353792;28;20004;-79
2022/04/29 15:04:27;;;;;;;;;;;;;;;19.51;53.28;99157.84;10366160;28;20004;-79
2022/04/29 15:20:15;;;;;;;;;;;;;;;20.09;50.49;99146.56;10351589;28;19925;-79
2022/04/29 15:25:23;;;;;;;;;;;;;;;20.22;51.76;99133.97;10342477;28;20212;-80
2022/04/29 15:30:36;;;;;;;;;;;;;;;20.05;48.95;99144.47;10350359;28;20351;-80
2022/04/29 15:35:42;;;;;;;;;;;;;;;19.97;51.04;99138.09;10369499;28;19925;-79
2022/04/29 15:40:45;;;;;;;;;;;;;;;19.73;51.47;99136.72;10372566;28;19921;-79
2022/04/29 15:45:49;;;;;;;;;;;;;;;19.58;51.18;99125.06;10383629;28;19937;-80
2022/04/29 15:50:54;;;;;;;;;;;;;;;19.36;51.30;99122.44;10373897;28;19917;-80
2022/04/29 15:55:57;;;;;;;;;;;;;;;19.35;50.48;99110.66;10361000;28;19929;-79
2022/04/29 16:01:02;;;;;;;;;;;;;;;19.36;51.91;99114.25;10349286;28;20003;-80
2022/04/29 16:06:06;;;;;;;;;;;;;;;19.31;52.02;99112.13;10335912;28;19925;-80
2022/04/29 16:11:10;;;;;;;;;;;;;;;18.99;52.76;99103.53;10348534;28;19972;-80
2022/04/29 16:16:13;;;;;;;;;;;;;;;18.50;52.80;99098.91;10349898;28;20225;-80
2022/04/29 16:21:24;;;;;;;;;;;;;;;18.29;55.41;99090.53;10347000;28;19962;-77
2022/04/29 16:26:27;;;;;;;;;;;;;;;18.06;56.00;99096.16;10370785;28;21433;-81
2022/04/29 16:31:30;;;;;;;;;;;;;;;17.87;57.72;99095.72;10353052;28;19925;-80
2022/04/29 16:36:35;;;;;;;;;;;;;;;17.74;58.46;99090.09;10353150;28;20358;-80
2022/04/29 16:41:40;;;;;;;;;;;;;;;17.53;59.68;99089.03;10354111;28;19921;-78
2022/04/29 16:46:44;;;;;;;;;;;;;;;17.23;60.81;99083.59;10352025;28;20435;-78
2022/04/29 16:51:49;;;;;;;;;;;;;;;17.04;62.12;99078.72;10361815;28;19921;-79
2022/04/29 17:02:14;;;;;;;;;;;;;;;16.73;66.22;99082.41;10359310;28;20416;-79
2022/04/29 17:07:19;;;;;;;;;;;;;;;16.59;69.12;99076.75;10359360;28;19926;-80
2022/04/29 17:12:23;;;;;;;;;;;;;;;16.42;72.38;99076.06;10357394;28;19927;-79
2022/04/29 17:17:25;;;;;;;;;;;;;;;16.25;76.37;99069.03;10334993;28;19983;-80
2022/04/29 17:22:30;;;;;;;;;;;;;;;16.11;78.47;99067.97;10370839;28;20023;-80
2022/04/29 17:27:33;;;;;;;;;;;;;;;15.88;80.19;99067.97;10341437;28;20248;-78
2022/04/29 17:32:43;;;;;;;;;;;;;;;15.65;83.41;99061.44;10371919;28;19921;-80
2022/04/29 17:37:47;;;;;;;;;;;;;;;15.36;90.80;99068.38;10340330;28;19909;-79
2022/04/29 17:42:50;;;;;;;;;;;;;;;15.10;90.39;99072.22;10356350;28;19922;-79
2022/04/29 17:47:54;;;;;;;;;;;;;;;14.94;91.93;99064.13;10364638;28;19936;-80
2022/04/29 17:52:59;;;;;;;;;;;;;;;14.71;93.08;99061.28;10390100;28;19925;-81
2022/04/29 17:58:04;;;;;;;;;;;;;;;14.59;95.49;99067.03;10347414;28;20256;-80
2022/04/29 18:03:07;;;;;;;;;;;;;;;14.47;96.66;99071.97;10355214;28;20015;-80
2022/04/29 18:08:12;;;;;;;;;;;;;;;14.22;99.10;99070.25;10356810;28;19929;-80
2022/04/29 18:13:15;;;;;;;;;;;;;;;14.06;100.00;99069.22;10355194;28;19972;-80
2022/04/29 18:18:18;;;;;;;;;;;;;;;13.91;100.00;99076.34;10343603;28;19983;-80
2022/04/29 18:23:22;;;;;;;;;;;;;;;13.78;100.00;99076.81;10342026;28;19931;-80
2022/04/29 18:28:26;;;;;;;;;;;;;;;13.68;100.00;99079.69;10352983;28;19964;-80
2022/04/29 18:33:29;;;;;;;;;;;;;;;13.55;100.00;99089.13;10367647;28;19964;-80
2022/04/29 18:38:34;;;;;;;;;;;;;;;13.46;100.00;99089.25;10354386;28;20346;-80
2022/04/29 18:43:37;;;;;;;;;;;;;;;13.40;100.00;99083.50;10354499;28;19957;-80
2022/04/29 18:48:40;;;;;;;;;;;;;;;13.35;100.00;99087.63;10358159;28;19935;-81
2022/04/29 18:53:45;;;;;;;;;;;;;;;13.25;100.00;99093.19;10355507;28;20001;-79
2022/04/29 18:58:48;;;;;;;;;;;;;;;13.16;100.00;99094.16;10336076;28;20804;-80
2022/04/29 19:03:51;;;;;;;;;;;;;;;13.09;100.00;99099.38;10361579;28;19929;-81
2022/04/29 19:08:55;;;;;;;;;;;;;;;13.05;100.00;99101.53;10351608;28;20293;-80
2022/04/29 19:13:58;;;;;;;;;;;;;;;12.95;100.00;99090.84;10352021;28;19936;-81
2022/04/29 19:19:01;;;;;;;;;;;;;;;12.92;100.00;99095.72;10352928;28;19929;-80
2022/04/29 19:24:06;;;;;;;;;;;;;;;12.83;100.00;99097.53;10350373;28;20021;-81
2022/04/29 19:29:09;;;;;;;;;;;;;;;12.76;99.95;99099.16;10354004;28;21322;-79
2022/04/29 19:34:13;;;;;;;;;;;;;;;12.72;100.00;99104.03;10356431;28;19929;-77
2022/04/29 19:39:18;;;;;;;;;;;;;;;12.68;100.00;99096.41;10348740;28;19933;-76
2022/04/29 19:44:22;;;;;;;;;;;;;;;12.64;100.00;99096.72;10331755;28;20073;-76
2022/04/29 19:49:27;;;;;;;;;;;;;;;12.58;97.27;99094.66;10330575;28;19933;-77
2022/04/29 19:54:40;;;;;;;;;;;;;;;12.59;96.86;99088.25;10336265;28;19937;-77
2022/04/29 19:59:46;;;;;;;;;;;;;;;12.54;98.04;99093.25;10322713;28;20028;-77
2022/04/29 20:04:50;;;;;;;;;;;;;;;12.45;98.85;99083.41;10326274;28;20020;-77
2022/04/29 20:09:55;;;;;;;;;;;;;;;12.41;97.54;99080.16;10336848;28;20355;-77
2022/04/29 20:14:58;;;;;;;;;;;;;;;12.40;98.91;99074.94;10334554;28;20016;-79
2022/04/29 20:20:01;;;;;;;;;;;;;;;12.37;100.00;99083.34;10333578;28;20008;-78
2022/04/29 20:25:05;;;;;;;;;;;;;;;12.33;98.49;99086.34;10326257;28;19936;-75
2022/04/29 20:30:09;;;;;;;;;;;;;;;12.36;98.00;99089.75;10339994;28;19936;-78
2022/04/29 20:35:13;;;;;;;;;;;;;;;12.29;95.79;99093.06;10343013;28;19933;-77
2022/04/29 20:45:34;;;;;;;;;;;;;;;12.32;99.98;99098.16;10334053;28;19952;-77
2022/04/29 20:50:37;;;;;;;;;;;;;;;12.28;100.00;99102.19;10341291;28;20030;-80
2022/04/29 20:55:42;;;;;;;;;;;;;;;12.21;100.00;99100.25;10331338;28;19933;-77
2022/04/29 21:00:45;;;;;;;;;;;;;;;12.12;100.00;99099.34;10344570;28;19925;-79
2022/04/29 21:05:47;;;;;;;;;;;;;;;12.05;100.00;99100.97;10347089;28;20480;-79
2022/04/29 21:10:52;;;;;;;;;;;;;;;11.83;100.00;99105.75;10346569;28;20377;-77
2022/04/29 21:15:56;;;;;;;;;;;;;;;11.64;100.00;99086.00;10367135;28;19915;-78
2022/04/29 21:20:59;;;;;;;;;;;;;;;11.56;100.00;99081.34;10375694;28;19930;-78
2022/04/29 21:26:03;;;;;;;;;;;;;;;11.57;100.00;99077.66;10340222;28;19984;-77
2022/04/29 21:31:07;;;;;;;;;;;;;;;11.55;100.00;99078.81;10344006;28;19929;-80
2022/04/29 21:36:10;;;;;;;;;;;;;;;11.41;100.00;99070.22;10359532;28;19949;-77
2022/04/29 21:41:15;;;;;;;;;;;;;;;11.46;100.00;99066.25;10337377;28;19936;-78
2022/04/29 21:46:18;;;;;;;;;;;;;;;11.47;99.60;99065.22;10355519;28;20054;-79
2022/04/29 21:51:21;;;;;;;;;;;;;;;11.48;100.00;99075.00;10341315;28;21308;-78
2022/04/29 21:56:26;;;;;;;;;;;;;;;11.43;100.00;99070.06;10341713;28;20390;-79
2022/04/29 22:01:30;;;;;;;;;;;;;;;11.37;100.00;99071.53;10337993;28;19929;-78
2022/04/29 22:06:34;;;;;;;;;;;;;;;11.28;100.00;99072.44;10353281;28;20024;-77
2022/04/29 22:11:38;;;;;;;;;;;;;;;11.19;100.00;99074.16;10340675;28;20309;-78
2022/04/29 22:16:43;;;;;;;;;;;;;;;11.09;100.00;99070.66;10335975;28;19936;-77
2022/04/29 22:21:46;;;;;;;;;;;;;;;11.02;100.00;99075.81;10334344;28;21214;-78
2022/04/29 22:26:51;;;;;;;;;;;;;;;10.93;100.00;99069.47;10349643;28;20264;-78
2022/04/29 22:31:54;;;;;;;;;;;;;;;10.64;100.00;99067.69;10337202;28;19929;-79
2022/04/29 22:36:57;;;;;;;;;;;;;;;10.73;100.00;99060.59;10355813;28;19997;-79
2022/04/29 22:42:03;;;;;;;;;;;;;;;10.74;100.00;99051.53;10327829;28;19929;-77
2022/04/29 22:47:07;;;;;;;;;;;;;;;10.71;100.00;99049.09;10339656;28;19957;-78
2022/04/29 22:52:09;;;;;;;;;;;;;;;10.69;100.00;99051.09;10168721;28;5000850;-77
2022/04/29 22:57:14;;;;;;;;;;;;;;;10.56;100.00;99054.13;10336326;28;19929;-79
2022/04/29 23:02:18;;;;;;;;;;;;;;;10.38;100.00;99043.25;10341550;28;19929;-79
2022/04/29 23:07:22;;;;;;;;;;;;;;;10.24;100.00;99041.78;10341985;28;20404;-77
2022/04/29 23:12:27;;;;;;;;;;;;;;;10.21;100.00;99036.72;10339973;28;19929;-78
2022/04/29 23:22:51;;;;;;;;;;;;;;;10.19;100.00;99022.53;10341836;28;20513;-79
2022/04/29 23:27:55;;;;;;;;;;;;;;;10.10;100.00;99012.63;10344636;28;21045;-78
2022/04/29 23:33:01;;;;;;;;;;;;;;;10.05;100.00;99021.16;10342074;28;19929;-80
2022/04/29 23:38:04;;;;;;;;;;;;;;;10.00;100.00;99016.16;10340855;28;19929;-78
2022/04/29 23:43:08;;;;;;;;;;;;;;;10.00;100.00;99008.09;10344974;28;19929;-80
2022/04/29 23:48:12;;;;;;;;;;;;;;;9.91;100.00;99005.44;10346069;28;20040;-79
2022/04/29 23:53:15;;;;;;;;;;;;;;;9.81;100.00;99008.97;10345072;28;19926;-80
2022/04/29 23:58:20;;;;;;;;;;;;;;;9.69;100.00;98994.81;10359261;28;19937;-80
